createdAt,value
2023-01-20T00:02:40.760Z,44.33
2023-01-20T00:06:04.832Z,40.13
2023-01-20T00:09:28.474Z,53.17
2023-01-20T00:12:52.631Z,41.57
2023-01-20T00:16:18.026Z,42.60
2023-01-20T00:19:42.561Z,44.03
2023-01-20T00:23:06.602Z,45.50
2023-01-20T00:26:55.308Z,42.33
2023-01-20T00:30:19.891Z,39.20
2023-01-20T00:33:45.700Z,38.40
2023-01-20T00:37:09.502Z,42.43
2023-01-20T00:40:33.693Z,42.50
2023-01-20T00:43:57.287Z,35.40
2023-01-20T00:47:21.663Z,39.13
2023-01-20T00:50:46.959Z,36.93
2023-01-20T00:54:10.545Z,41.90
2023-01-20T00:57:34.652Z,44.03
2023-01-20T01:00:59.196Z,33.53
2023-01-20T01:04:26.356Z,36.63
2023-01-20T01:07:52.089Z,42.73
2023-01-20T01:11:16.740Z,36.07
2023-01-20T01:14:40.700Z,37.13
2023-01-20T01:18:05.080Z,41.57
2023-01-20T01:21:29.834Z,40.63
2023-01-20T01:24:54.983Z,39.40
2023-01-20T01:28:21.974Z,41.43
2023-01-20T01:31:45.707Z,37.10
2023-01-20T01:35:09.871Z,36.20
2023-01-20T01:38:33.921Z,40.80
2023-01-20T01:41:59.126Z,42.17
2023-01-20T01:45:26.926Z,37.60
2023-01-20T01:48:50.748Z,36.83
2023-01-20T01:52:17.099Z,36.80
2023-01-20T01:55:47.154Z,38.53
2023-01-20T01:59:17.190Z,39.67
2023-01-20T02:02:43.460Z,44.30
2023-01-20T02:06:08.736Z,40.37
2023-01-20T02:09:33.059Z,36.47
2023-01-20T02:12:58.820Z,38.83
2023-01-20T02:16:35.343Z,40.70
2023-01-20T02:20:36.287Z,39.00
2023-01-20T02:24:29.099Z,37.53
2023-01-20T02:28:23.321Z,46.23
2023-01-20T02:32:12.465Z,41.30
2023-01-20T02:35:41.671Z,41.07
2023-01-20T02:39:13.370Z,41.43
2023-01-20T02:43:00.057Z,44.37
2023-01-20T02:46:32.121Z,43.47
2023-01-20T02:50:02.003Z,39.90
2023-01-20T02:53:33.199Z,39.60
2023-01-20T03:01:51.579Z,51.80
2023-01-20T03:05:21.661Z,44.93
2023-01-20T03:08:49.205Z,47.33
2023-01-20T03:12:19.125Z,50.93
2023-01-20T03:15:53.210Z,42.63
2023-01-20T03:19:20.397Z,53.20
2023-01-20T03:22:45.538Z,52.43
2023-01-20T03:26:12.070Z,53.57
2023-01-20T03:29:36.024Z,54.50
2023-01-20T03:33:03.224Z,46.87
2023-01-20T03:36:29.991Z,56.50
2023-01-20T03:39:57.856Z,54.93
2023-01-20T03:43:30.561Z,40.90
2023-01-20T03:46:59.811Z,45.30
2023-01-20T03:50:35.798Z,47.27
2023-01-20T03:54:04.394Z,43.07
2023-01-20T03:57:35.754Z,42.03
2023-01-20T04:01:16.004Z,41.53
2023-01-20T04:04:45.175Z,41.27
2023-01-20T04:08:12.438Z,40.60
2023-01-20T04:11:38.288Z,36.70
2023-01-20T04:15:05.524Z,37.63
2023-01-20T04:18:30.041Z,41.27
2023-01-20T04:21:59.134Z,41.13
2023-01-20T04:25:31.433Z,42.90
2023-01-20T04:28:55.922Z,41.00
2023-01-20T04:32:21.416Z,41.80
2023-01-20T04:35:45.933Z,40.00
2023-01-20T04:39:10.243Z,45.33
2023-01-20T04:42:33.865Z,42.53
2023-01-20T04:46:00.439Z,39.17
2023-01-20T04:49:32.726Z,41.47
2023-01-20T04:53:00.856Z,42.23
2023-01-20T04:56:25.315Z,40.53
2023-01-20T04:59:49.872Z,39.40
2023-01-20T05:03:13.601Z,50.67
2023-01-20T05:06:42.607Z,39.93
2023-01-20T05:10:08.025Z,65.03
2023-01-20T05:13:32.204Z,47.80
2023-01-20T05:16:55.935Z,40.93
2023-01-20T05:20:20.680Z,43.43
2023-01-20T05:23:46.308Z,34.80
2023-01-20T05:27:09.936Z,36.43
2023-01-20T05:30:34.016Z,34.10
2023-01-20T05:33:58.148Z,34.97
2023-01-20T05:37:24.262Z,38.70
2023-01-20T05:40:53.079Z,38.03
2023-01-20T05:44:17.629Z,36.73
2023-01-20T05:47:42.017Z,32.50
2023-01-20T05:51:06.915Z,33.67
2023-01-20T05:54:30.913Z,32.20
2023-01-20T05:57:56.280Z,32.70
2023-01-20T06:01:20.043Z,29.30
2023-01-20T06:04:43.902Z,35.60
2023-01-20T06:08:11.324Z,44.97
2023-01-20T06:11:35.932Z,38.53
2023-01-20T06:15:08.431Z,34.30
2023-01-20T06:18:34.967Z,36.90
2023-01-20T06:22:03.497Z,42.43
2023-01-20T06:25:29.235Z,30.10
2023-01-20T06:28:53.019Z,45.93
2023-01-20T06:32:21.150Z,41.40
2023-01-20T06:35:44.874Z,46.57
2023-01-20T06:39:08.511Z,39.57
2023-01-20T06:42:32.754Z,46.10
2023-01-20T06:46:00.665Z,40.53
2023-01-20T06:49:25.929Z,44.50
2023-01-20T06:52:49.502Z,39.50
2023-01-20T06:56:14.428Z,48.13
2023-01-20T06:59:38.125Z,42.07
2023-01-20T07:03:01.706Z,49.23
2023-01-20T07:06:30.161Z,43.50
2023-01-20T07:09:55.470Z,40.87
2023-01-20T07:13:19.041Z,40.90
2023-01-20T07:16:42.671Z,40.47
2023-01-20T07:20:07.054Z,37.87
2023-01-20T07:23:33.598Z,41.77
2023-01-20T07:26:57.287Z,48.80
2023-01-20T07:30:21.107Z,37.53
2023-01-20T07:33:45.070Z,38.90
2023-01-20T07:37:08.746Z,42.63
2023-01-20T07:40:33.655Z,35.90
2023-01-20T07:43:57.628Z,36.17
2023-01-20T07:47:21.230Z,40.40
2023-01-20T07:50:45.086Z,41.33
2023-01-20T07:54:11.260Z,38.03
2023-01-20T07:57:36.372Z,42.47
2023-01-20T08:01:07.773Z,42.17
2023-01-20T08:04:31.468Z,34.63
2023-01-20T08:07:55.372Z,42.40
2023-01-20T08:11:21.450Z,46.87
2023-01-20T08:14:46.501Z,42.70
2023-01-20T08:18:10.146Z,35.87
2023-01-20T08:21:34.715Z,36.03
2023-01-20T08:24:58.375Z,43.13
2023-01-20T08:28:22.195Z,38.70
2023-01-20T08:31:47.275Z,47.43
2023-01-20T08:35:10.944Z,36.50
2023-01-20T08:38:35.306Z,41.70
2023-01-20T08:41:59.000Z,41.90
2023-01-20T08:45:23.611Z,40.70
2023-01-20T08:48:49.714Z,37.77
2023-01-20T08:52:13.469Z,43.50
2023-01-20T08:55:37.397Z,39.80
2023-01-20T08:59:02.236Z,41.90
2023-01-20T09:02:27.570Z,39.33
2023-01-20T09:05:53.127Z,39.70
2023-01-20T09:09:19.124Z,44.33
2023-01-20T09:12:42.702Z,34.87
2023-01-20T09:16:06.948Z,39.20
2023-01-20T09:19:30.677Z,36.40
2023-01-20T09:22:55.998Z,36.67
2023-01-20T09:26:34.356Z,35.67
2023-01-20T09:29:58.982Z,28.83
2023-01-20T09:33:22.743Z,44.90
2023-01-20T09:36:46.750Z,36.77
2023-01-20T09:40:32.539Z,34.17
2023-01-20T09:44:04.314Z,32.60
2023-01-20T09:47:31.405Z,28.03
2023-01-20T09:51:21.298Z,28.70
2023-01-20T09:54:48.844Z,29.23
2023-01-20T09:58:24.879Z,27.40
2023-01-20T10:01:52.306Z,25.77
2023-01-20T10:05:21.628Z,29.03
2023-01-20T10:09:04.463Z,25.67
2023-01-20T10:12:34.437Z,25.40
2023-01-20T10:16:06.394Z,25.60
2023-01-20T10:19:38.062Z,27.30
2023-01-20T10:23:09.390Z,25.77
2023-01-20T10:26:38.644Z,23.07
2023-01-20T10:30:09.927Z,25.77
2023-01-20T10:33:38.832Z,25.40
2023-01-20T10:37:06.735Z,24.83
2023-01-20T10:40:37.640Z,26.10
2023-01-20T10:44:01.416Z,20.67
2023-01-20T10:47:42.752Z,23.07
2023-01-20T10:51:13.346Z,25.50
2023-01-20T10:54:43.088Z,24.20
2023-01-20T10:58:15.969Z,19.87
2023-01-20T11:01:39.640Z,24.00
2023-01-20T11:05:11.353Z,21.63
2023-01-20T11:08:36.339Z,19.87
2023-01-20T11:12:01.471Z,26.00
2023-01-20T11:15:29.284Z,22.10
2023-01-20T11:18:59.210Z,23.93
2023-01-20T11:22:29.804Z,22.77
2023-01-20T11:25:59.968Z,22.43
2023-01-20T11:29:30.721Z,18.97
2023-01-20T11:33:17.729Z,18.53
2023-01-20T11:36:41.620Z,17.47
2023-01-20T11:40:19.100Z,19.73
2023-01-20T11:43:45.122Z,17.83
2023-01-20T11:47:22.743Z,19.10
2023-01-20T11:50:50.762Z,16.53
2023-01-20T11:54:17.131Z,17.23
2023-01-20T11:57:45.212Z,25.17
2023-01-20T12:01:23.709Z,19.87
2023-01-20T12:05:04.189Z,18.17
2023-01-20T12:08:31.802Z,19.07
2023-01-20T12:12:00.383Z,21.90
2023-01-20T12:15:27.246Z,17.67
2023-01-20T12:19:01.667Z,19.77
2023-01-20T12:22:38.611Z,19.37
2023-01-20T12:26:04.060Z,18.50
2023-01-20T12:29:37.594Z,19.53
2023-01-20T12:33:01.256Z,21.03
2023-01-20T12:36:49.496Z,17.47
2023-01-20T12:40:33.168Z,18.20
2023-01-20T12:44:06.955Z,18.50
2023-01-20T12:47:45.505Z,18.00
2023-01-20T12:51:20.704Z,17.70
2023-01-20T12:55:25.248Z,16.13
2023-01-20T12:59:00.391Z,17.20
2023-01-20T13:02:50.476Z,14.03
2023-01-20T13:06:32.218Z,14.00
2023-01-20T13:10:15.538Z,16.00
2023-01-20T13:13:56.824Z,16.67
2023-01-20T13:17:29.050Z,16.57
2023-01-20T13:20:54.449Z,15.17
2023-01-20T13:24:29.011Z,15.43
2023-01-20T13:27:54.802Z,16.93
2023-01-20T13:31:43.055Z,17.30
2023-01-20T13:35:45.432Z,14.00
2023-01-20T13:39:40.360Z,20.97
2023-01-20T13:43:05.921Z,16.03
2023-01-20T13:46:49.942Z,15.77
2023-01-20T13:50:24.081Z,13.57
2023-01-20T13:53:47.705Z,15.80
2023-01-20T13:57:44.723Z,16.37
2023-01-20T14:01:15.783Z,14.93
2023-01-20T14:04:45.291Z,17.07
2023-01-20T14:08:15.483Z,11.43
2023-01-20T14:11:50.103Z,16.30
2023-01-20T14:15:35.913Z,13.93
2023-01-20T14:19:02.532Z,17.47
2023-01-20T14:22:27.694Z,10.97
2023-01-20T14:25:58.674Z,11.67
2023-01-20T14:29:22.229Z,11.90
2023-01-20T14:32:45.959Z,15.77
2023-01-20T14:36:16.050Z,20.40
2023-01-20T14:39:40.908Z,9.13
2023-01-20T14:43:19.421Z,15.93
2023-01-20T14:46:43.231Z,13.13
2023-01-20T14:50:07.744Z,15.83
2023-01-20T14:53:33.037Z,17.30
2023-01-20T14:56:56.676Z,9.37
2023-01-20T15:00:25.459Z,11.13
2023-01-20T15:03:56.113Z,10.63
2023-01-20T15:07:22.490Z,16.50
2023-01-20T15:10:47.536Z,15.90
2023-01-20T15:14:13.030Z,15.10
2023-01-20T15:17:36.694Z,17.20
2023-01-20T15:21:23.237Z,16.43
2023-01-20T15:24:49.411Z,19.17
2023-01-20T15:28:27.068Z,15.10
2023-01-20T15:31:51.483Z,18.33
2023-01-20T15:35:16.179Z,16.50
2023-01-20T15:38:39.783Z,16.63
2023-01-20T15:42:03.363Z,16.67
2023-01-20T15:45:30.494Z,20.77
2023-01-20T15:48:54.115Z,19.30
2023-01-20T15:52:17.723Z,20.60
2023-01-20T15:55:49.990Z,22.40
2023-01-20T15:59:19.752Z,23.40
2023-01-20T16:02:45.921Z,21.30
2023-01-20T16:06:14.364Z,22.13
2023-01-20T16:09:38.602Z,22.83
2023-01-20T16:13:02.438Z,19.23
2023-01-20T16:16:29.474Z,31.47
2023-01-20T16:19:54.729Z,21.13
2023-01-20T16:23:18.408Z,24.97
2023-01-20T16:26:46.349Z,25.50
2023-01-20T16:30:14.652Z,27.33
2023-01-20T16:33:38.617Z,21.40
2023-01-20T16:37:03.635Z,23.63
2023-01-20T16:40:27.874Z,24.80
2023-01-20T16:43:52.047Z,23.10
2023-01-20T16:47:15.682Z,23.47
2023-01-20T16:50:39.695Z,19.80
2023-01-20T16:54:04.826Z,24.00
2023-01-20T16:57:28.575Z,21.37
2023-01-20T17:00:52.252Z,28.73
2023-01-20T17:04:16.640Z,21.90
2023-01-20T17:07:40.220Z,24.63
2023-01-20T17:11:05.456Z,31.77
2023-01-20T17:14:29.099Z,23.87
2023-01-20T17:17:55.765Z,27.30
2023-01-20T17:21:20.790Z,31.07
2023-01-20T17:24:44.609Z,24.83
2023-01-20T17:28:09.703Z,25.03
2023-01-20T17:31:35.437Z,28.27
2023-01-20T17:34:59.232Z,22.20
2023-01-20T17:38:23.427Z,26.53
2023-01-20T17:41:47.205Z,24.70
2023-01-20T17:45:12.995Z,24.23
2023-01-20T17:48:36.720Z,24.03
2023-01-20T17:52:00.359Z,33.10
2023-01-20T17:55:23.961Z,33.27
2023-01-20T17:58:48.936Z,28.57
2023-01-20T18:02:15.002Z,27.40
2023-01-20T18:05:39.598Z,27.83
2023-01-20T18:09:03.410Z,31.20
2023-01-20T18:12:27.373Z,35.30
2023-01-20T18:15:54.328Z,30.37
2023-01-20T18:19:20.373Z,27.63
2023-01-20T18:22:49.072Z,27.40
2023-01-20T18:26:14.456Z,30.07
2023-01-20T18:29:38.066Z,27.13
2023-01-20T18:33:01.859Z,31.57
2023-01-20T18:36:28.776Z,30.33
2023-01-20T18:39:52.426Z,31.23
2023-01-20T18:43:16.012Z,30.87
2023-01-20T18:46:40.020Z,35.83
2023-01-20T18:50:03.897Z,31.60
2023-01-20T18:53:30.255Z,33.67
2023-01-20T18:56:54.060Z,30.00
2023-01-20T19:00:18.575Z,35.50
2023-01-20T19:03:42.878Z,29.43
2023-01-20T19:07:06.968Z,33.90
2023-01-20T19:10:32.255Z,35.13
2023-01-20T19:13:56.563Z,36.83
2023-01-20T19:17:20.209Z,34.23
2023-01-20T19:20:44.713Z,29.93
2023-01-20T19:24:10.843Z,36.50
2023-01-20T19:27:35.942Z,33.27
2023-01-20T19:31:06.255Z,36.97
2023-01-20T19:34:32.069Z,34.37
2023-01-20T19:37:56.492Z,32.33
2023-01-20T19:41:25.773Z,33.30
2023-01-20T19:44:51.573Z,33.17
2023-01-20T19:48:15.900Z,34.53
2023-01-20T19:51:40.011Z,33.93
2023-01-20T19:55:04.268Z,36.97
2023-01-20T19:58:27.936Z,29.80
2023-01-20T20:01:53.376Z,40.30
2023-01-20T20:05:19.090Z,31.60
2023-01-20T20:08:42.828Z,37.17
2023-01-20T20:12:07.678Z,33.53
2023-01-20T20:15:32.176Z,35.20
2023-01-20T20:18:58.027Z,34.23
2023-01-20T20:22:21.787Z,42.67
2023-01-20T20:25:49.771Z,36.67
2023-01-20T20:29:15.318Z,34.93
2023-01-20T20:32:39.018Z,36.50
2023-01-20T20:36:08.688Z,33.80
2023-01-20T20:39:32.313Z,35.53
2023-01-20T20:42:57.458Z,38.33
2023-01-20T20:46:21.323Z,43.43
2023-01-20T20:49:45.058Z,39.13
2023-01-20T20:53:10.563Z,41.10
2023-01-20T20:56:35.176Z,38.87
2023-01-20T20:59:59.675Z,38.97
2023-01-20T21:03:23.363Z,39.30
2023-01-20T21:06:47.119Z,35.67
2023-01-20T21:10:20.603Z,33.93
2023-01-20T21:13:49.541Z,38.83
2023-01-20T21:17:13.415Z,43.30
2023-01-20T21:20:37.087Z,37.50
2023-01-20T21:24:00.937Z,37.50
2023-01-20T21:27:26.028Z,39.90
2023-01-20T21:30:49.795Z,39.70
2023-01-20T21:34:15.320Z,39.77
2023-01-20T21:37:39.087Z,41.37
2023-01-20T21:41:05.853Z,37.37
2023-01-20T21:44:32.828Z,36.10
2023-01-20T21:48:18.401Z,38.47
2023-01-20T21:51:59.707Z,41.53
2023-01-20T21:55:24.192Z,39.60
2023-01-20T21:58:47.904Z,46.60
2023-01-20T22:02:14.481Z,37.53
2023-01-20T22:05:39.793Z,43.27
2023-01-20T22:09:03.432Z,36.27
2023-01-20T22:12:27.063Z,38.20
2023-01-20T22:15:51.058Z,41.23
2023-01-20T22:19:16.563Z,45.10
2023-01-20T22:22:40.222Z,36.50
2023-01-20T22:26:05.248Z,35.93
2023-01-20T22:29:28.863Z,38.50
2023-01-20T22:32:52.898Z,38.73
2023-01-20T22:36:18.213Z,37.37
2023-01-20T22:39:41.831Z,40.13
2023-01-20T22:43:05.900Z,35.43
2023-01-20T22:46:29.879Z,39.63
2023-01-20T22:49:55.071Z,39.87
2023-01-20T22:53:20.075Z,38.67
2023-01-20T22:56:43.783Z,38.53
2023-01-20T23:00:08.910Z,41.60
2023-01-20T23:03:32.600Z,36.40
2023-01-20T23:06:56.311Z,42.43
2023-01-20T23:10:35.348Z,39.70
2023-01-20T23:14:00.197Z,39.87
2023-01-20T23:17:23.887Z,36.63
2023-01-20T23:20:52.245Z,34.50
2023-01-20T23:24:16.029Z,36.83
2023-01-20T23:27:41.008Z,36.67
2023-01-20T23:31:07.012Z,45.70
2023-01-20T23:34:30.678Z,39.20
2023-01-20T23:37:54.667Z,43.10
2023-01-20T23:41:18.391Z,40.70
2023-01-20T23:44:43.423Z,40.10
2023-01-20T23:48:07.384Z,42.70
2023-01-20T23:51:31.190Z,47.40
2023-01-20T23:54:55.049Z,42.90
2023-01-20T23:58:18.801Z,43.30
